createdAt,value
2023-02-13T00:01:12.497Z,100140.00
2023-02-13T00:06:33.998Z,100137.00
2023-02-13T00:11:55.327Z,100130.00
2023-02-13T00:17:16.703Z,100122.00
2023-02-13T00:22:39.392Z,100127.00
2023-02-13T00:28:00.556Z,100130.00
2023-02-13T00:33:21.997Z,100117.00
2023-02-13T00:38:44.400Z,100128.00
2023-02-13T00:44:06.577Z,100121.00
2023-02-13T00:49:28.411Z,100117.00
2023-02-13T00:54:49.917Z,100115.00
2023-02-13T01:00:11.959Z,100115.00
2023-02-13T01:05:36.485Z,100125.00
2023-02-13T01:10:58.591Z,100121.00
2023-02-13T01:16:20.410Z,100121.00
2023-02-13T01:21:42.889Z,100122.00
2023-02-13T01:27:04.153Z,100128.00
2023-02-13T01:32:26.088Z,100126.00
2023-02-13T01:37:47.219Z,100122.00
2023-02-13T01:43:11.998Z,100121.00
2023-02-13T01:48:33.668Z,100112.00
2023-02-13T01:54:16.787Z,100107.00
2023-02-13T01:59:53.457Z,100113.00
2023-02-13T02:05:17.146Z,100112.00
2023-02-13T02:10:39.649Z,100104.00
2023-02-13T02:16:00.952Z,100092.00
2023-02-13T02:21:35.990Z,100094.00
2023-02-13T02:27:38.649Z,100090.00
2023-02-13T02:33:21.736Z,100087.00
2023-02-13T02:39:09.863Z,100088.00
2023-02-13T02:44:42.879Z,100080.00
2023-02-13T02:50:20.389Z,100079.00
2023-02-13T02:55:51.448Z,100087.00
2023-02-13T03:01:36.365Z,100082.00
2023-02-13T03:07:04.100Z,100068.00
2023-02-13T03:12:49.020Z,100074.00
2023-02-13T03:18:29.603Z,100081.00
2023-02-13T03:24:10.041Z,100078.00
2023-02-13T03:30:11.876Z,100077.00
2023-02-13T03:36:04.618Z,100075.00
2023-02-13T03:41:32.729Z,100081.00
2023-02-13T03:46:58.557Z,100093.00
2023-02-13T03:52:32.567Z,100096.00
2023-02-13T03:58:17.050Z,100096.00
2023-02-13T04:04:09.006Z,100095.00
2023-02-13T04:09:32.374Z,100104.00
2023-02-13T04:15:10.410Z,100106.00
2023-02-13T04:20:32.975Z,100098.00
2023-02-13T04:25:57.309Z,100103.00
2023-02-13T04:31:18.568Z,100104.00
2023-02-13T04:36:40.066Z,100096.00
2023-02-13T04:42:02.696Z,100104.00
2023-02-13T04:47:23.956Z,100092.00
2023-02-13T04:52:45.500Z,100104.00
2023-02-13T04:58:07.027Z,100089.00
2023-02-13T05:03:28.565Z,100090.00
2023-02-13T05:08:50.415Z,100092.00
2023-02-13T05:14:12.119Z,100084.00
2023-02-13T05:19:33.649Z,100092.00
2023-02-13T05:24:54.940Z,100084.00
2023-02-13T05:30:16.422Z,100080.00
2023-02-13T05:35:37.860Z,100092.00
2023-02-13T05:41:02.641Z,100094.00
2023-02-13T05:46:24.340Z,100089.00
2023-02-13T05:51:49.447Z,100094.00
2023-02-13T05:57:10.967Z,100086.00
2023-02-13T06:02:32.532Z,100100.00
2023-02-13T06:07:54.006Z,100101.00
2023-02-13T06:13:15.820Z,100095.00
2023-02-13T06:18:37.683Z,100102.00
2023-02-13T06:23:59.287Z,100104.00
2023-02-13T06:29:21.008Z,100124.00
2023-02-13T06:34:42.579Z,100117.00
2023-02-13T06:40:04.607Z,100116.00
2023-02-13T06:45:26.139Z,100113.00
2023-02-13T06:50:47.461Z,100129.00
2023-02-13T06:56:09.607Z,100128.00
2023-02-13T07:01:33.009Z,100129.00
2023-02-13T07:06:57.238Z,100136.00
2023-02-13T07:12:18.452Z,100141.00
2023-02-13T07:17:40.061Z,100143.00
2023-02-13T07:23:02.629Z,100151.00
2023-02-13T07:28:23.902Z,100147.00
2023-02-13T07:33:48.369Z,100147.00
2023-02-13T07:39:09.863Z,100133.00
2023-02-13T07:44:31.876Z,100144.00
2023-02-13T07:49:55.012Z,100137.00
2023-02-13T07:55:16.499Z,100144.00
2023-02-13T08:00:38.010Z,100139.00
2023-02-13T08:05:59.719Z,100143.00
2023-02-13T08:11:50.328Z,100143.00
2023-02-13T08:17:11.847Z,100146.00
2023-02-13T08:22:33.442Z,100133.00
2023-02-13T08:27:54.645Z,100150.00
2023-02-13T08:33:16.262Z,100152.00
2023-02-13T08:38:37.797Z,100147.00
2023-02-13T08:43:59.072Z,100151.00
2023-02-13T08:49:20.819Z,100154.00
2023-02-13T08:54:42.322Z,100161.00
2023-02-13T09:00:04.742Z,100147.00
2023-02-13T09:05:26.076Z,100151.00
2023-02-13T09:10:47.478Z,100158.00
2023-02-13T09:16:10.673Z,100166.00
2023-02-13T09:21:32.301Z,100169.00
2023-02-13T09:26:53.936Z,100162.00
2023-02-13T09:32:17.201Z,100175.00
2023-02-13T09:37:38.786Z,100180.00
2023-02-13T09:43:29.759Z,100168.00
2023-02-13T09:48:54.685Z,100182.00
2023-02-13T09:54:19.365Z,100174.00
2023-02-13T09:59:50.286Z,100174.00
2023-02-13T10:05:32.140Z,100178.00
2023-02-13T10:11:20.837Z,100177.00
2023-02-13T10:16:51.032Z,100181.00
2023-02-13T10:22:17.328Z,100183.00
2023-02-13T10:27:50.061Z,100177.00
2023-02-13T10:33:20.392Z,100180.00
2023-02-13T10:39:19.115Z,100165.00
2023-02-13T10:44:43.771Z,100168.00
2023-02-13T10:50:26.993Z,100170.00
2023-02-13T10:55:54.546Z,100166.00
2023-02-13T11:01:36.272Z,100159.00
2023-02-13T11:07:00.738Z,100155.00
2023-02-13T11:12:32.564Z,100149.00
2023-02-13T11:17:57.888Z,100128.00
2023-02-13T11:23:31.349Z,100126.00
2023-02-13T11:28:57.069Z,100115.00
2023-02-13T11:34:29.904Z,100119.00
2023-02-13T11:39:54.417Z,100101.00
2023-02-13T11:45:25.527Z,100108.00
2023-02-13T11:50:56.261Z,100107.00
2023-02-13T11:56:17.943Z,100095.00
2023-02-13T12:01:39.403Z,100099.00
2023-02-13T12:07:24.723Z,100109.00
2023-02-13T12:13:14.374Z,100091.00
2023-02-13T12:18:46.781Z,100093.00
2023-02-13T12:24:26.325Z,100087.00
2023-02-13T12:29:56.708Z,100087.00
2023-02-13T12:35:23.985Z,100092.00
2023-02-13T12:41:05.654Z,100090.00
2023-02-13T12:46:54.912Z,100081.00
2023-02-13T12:52:22.342Z,100081.00
2023-02-13T12:58:04.759Z,100081.00
2023-02-13T13:03:33.421Z,100079.00
2023-02-13T13:09:18.832Z,100077.00
2023-02-13T13:15:33.339Z,100088.00
2023-02-13T13:20:58.764Z,100084.00
2023-02-13T13:26:32.171Z,100081.00
2023-02-13T13:31:59.960Z,100073.00
2023-02-13T13:37:41.250Z,100076.00
2023-02-13T13:43:23.160Z,100084.00
2023-02-13T13:48:59.687Z,100083.00
2023-02-13T13:54:24.751Z,100085.00
2023-02-13T13:59:51.783Z,100083.00
2023-02-13T14:05:34.101Z,100067.00
2023-02-13T14:11:01.021Z,100065.00
2023-02-13T14:16:45.313Z,100059.00
2023-02-13T14:22:28.176Z,100064.00
2023-02-13T14:28:04.563Z,100067.00
2023-02-13T14:33:31.288Z,100058.00
2023-02-13T14:39:07.454Z,100057.00
2023-02-13T14:44:49.561Z,100059.00
2023-02-13T14:50:23.668Z,100066.00
2023-02-13T14:55:48.570Z,100067.00
2023-02-13T15:01:31.398Z,100058.00
2023-02-13T15:06:55.886Z,100045.00
2023-02-13T15:12:32.031Z,100036.00
2023-02-13T15:18:11.898Z,100046.00
2023-02-13T15:23:34.868Z,100047.00
2023-02-13T15:29:17.453Z,100055.00
2023-02-13T15:34:50.106Z,100036.00
2023-02-13T15:40:33.286Z,100034.00
2023-02-13T15:45:57.402Z,100037.00
2023-02-13T15:51:30.779Z,100019.00
2023-02-13T15:56:53.832Z,100017.00
2023-02-13T16:02:25.728Z,100015.00
2023-02-13T16:07:51.561Z,100001.00
2023-02-13T16:13:18.812Z,99994.00
2023-02-13T16:18:44.239Z,100005.00
2023-02-13T16:24:07.573Z,100005.00
2023-02-13T16:29:29.189Z,100007.00
2023-02-13T16:34:52.375Z,100003.00
2023-02-13T16:40:38.533Z,99993.00
2023-02-13T16:46:11.539Z,100006.00
2023-02-13T16:51:51.162Z,100026.00
2023-02-13T16:57:17.600Z,100021.00
2023-02-13T17:02:50.735Z,100027.00
2023-02-13T17:08:12.113Z,100026.00
2023-02-13T17:13:34.377Z,100035.00
2023-02-13T17:18:55.719Z,100029.00
2023-02-13T17:24:18.834Z,100026.00
2023-02-13T17:29:40.402Z,100034.00
2023-02-13T17:35:01.858Z,100023.00
2023-02-13T17:40:26.187Z,100022.00
2023-02-13T17:45:48.070Z,100028.00
2023-02-13T17:51:14.063Z,100019.00
2023-02-13T17:56:35.481Z,100028.00
2023-02-13T18:01:57.252Z,100032.00
2023-02-13T18:07:21.026Z,100008.00
2023-02-13T18:12:43.334Z,100022.00
2023-02-13T18:18:05.068Z,100021.00
2023-02-13T18:23:26.601Z,100021.00
2023-02-13T18:28:52.290Z,100010.00
2023-02-13T18:34:13.923Z,100011.00
2023-02-13T18:39:35.832Z,100000.00
2023-02-13T18:44:57.212Z,100004.00
2023-02-13T18:50:18.706Z,100002.00
2023-02-13T18:55:40.686Z,99992.00
2023-02-13T19:01:11.685Z,100006.00
2023-02-13T19:06:33.757Z,99992.00
2023-02-13T19:11:55.047Z,100007.00
2023-02-13T19:17:16.531Z,100007.00
2023-02-13T19:22:38.225Z,100016.00
2023-02-13T19:27:59.703Z,100018.00
2023-02-13T19:33:21.189Z,100023.00
2023-02-13T19:38:46.694Z,100009.00
2023-02-13T19:44:08.874Z,100012.00
2023-02-13T19:49:30.571Z,100010.00
2023-02-13T19:54:53.828Z,100002.00
2023-02-13T20:00:15.934Z,99998.00
2023-02-13T20:05:41.041Z,99993.00
2023-02-13T20:11:02.794Z,99992.00
2023-02-13T20:16:24.880Z,99997.00
2023-02-13T20:21:46.567Z,99994.00
2023-02-13T20:27:10.431Z,99999.00
2023-02-13T20:32:31.765Z,99995.00
2023-02-13T20:37:53.042Z,99981.00
2023-02-13T20:43:14.246Z,100001.00
2023-02-13T20:48:37.133Z,99987.00
2023-02-13T20:54:00.443Z,99986.00
2023-02-13T20:59:21.766Z,99977.00
2023-02-13T21:04:43.071Z,99977.00
2023-02-13T21:10:05.843Z,99977.00
2023-02-13T21:15:29.244Z,99979.00
2023-02-13T21:20:50.750Z,99978.00
2023-02-13T21:26:15.953Z,99988.00
2023-02-13T21:31:51.241Z,100008.00
2023-02-13T21:37:12.420Z,100006.00
2023-02-13T21:42:33.979Z,100011.00
2023-02-13T21:47:56.709Z,100015.00
2023-02-13T21:53:18.215Z,100013.00
2023-02-13T21:58:41.705Z,100015.00
2023-02-13T22:04:06.643Z,100007.00
2023-02-13T22:09:28.156Z,100027.00
2023-02-13T22:14:54.401Z,100019.00
2023-02-13T22:20:15.888Z,100027.00
2023-02-13T22:25:37.469Z,100020.00
2023-02-13T22:30:59.830Z,100028.00
2023-02-13T22:36:22.404Z,100029.00
2023-02-13T22:41:45.841Z,100024.00
2023-02-13T22:47:07.683Z,100037.00
2023-02-13T22:52:29.163Z,100037.00
2023-02-13T22:57:54.382Z,100048.00
2023-02-13T23:03:15.795Z,100036.00
2023-02-13T23:08:38.362Z,100027.00
2023-02-13T23:14:00.491Z,100040.00
2023-02-13T23:19:22.843Z,100040.00
2023-02-13T23:24:44.441Z,100052.00
2023-02-13T23:30:07.576Z,100058.00
2023-02-13T23:35:29.275Z,100039.00
2023-02-13T23:40:50.858Z,100041.00
2023-02-13T23:46:12.419Z,100053.00
2023-02-13T23:51:33.563Z,100051.00
2023-02-13T23:56:56.278Z,100050.00
